Portada
METAR-TAF:

METAR-TAF

Aeroports :

Base aèria

Tulln an der Donau, Àustria

latitud: 48-19N, longitud: 016-07E, altitud: 175 m

METAR: manca

Hora: 18:02 (16:02 UTC)

Pronòstic

L'informe es va fer fa 7 hores i 47 minuts, a les 08:15 UTC
Pronòstic vàlid del 18 a les 09 UTC al 18 a les 18 UTC
Vent 10 kt del Est
Visibilitat 10 km o més
Escasses núvols a una alçada de 30000 ft
Temporalment
l' 18 a les 09 UTC al 18 a les 15 UTC
Vent 15 kt del Sud-Est amb ràfegues de 25 kt
Escasses núvols a una alçada de 4000 ft

TAF: LOXT 180815Z 1809/1818 10010KT 9999 FEW300 TEMPO 1809/1815 14015G25KT FEW040

Observacions i pronòstics meteorològics de més de 4000 aeroports (METAR i TAF).

Les estacions disponibles són els punts grocs i vermells al mapa.

Posi el ratolí al punt desitjat per veure el nom de l'estació.

Feu clic per veure les observacions i els pronòstics meteorològics.

Per canviar el mapa: feu clic els botons verds amb una creu de color negre per apropar; al botó verd amb un guió per allunyar la imatge; o en les fletxes verdes per a mapes adjacents.


METAR-TAF: